createdAt,value
2019-04-01T00:00:38.389Z,9.58
2019-04-01T00:03:08.498Z,9.61
2019-04-01T00:05:36.994Z,9.65
2019-04-01T00:08:05.483Z,9.69
2019-04-01T00:10:34.616Z,9.71
2019-04-01T00:13:03.158Z,9.70
2019-04-01T00:15:31.658Z,9.67
2019-04-01T00:18:00.195Z,9.62
2019-04-01T00:20:28.717Z,9.56
2019-04-01T00:22:57.326Z,9.56
2019-04-01T00:25:25.871Z,9.52
2019-04-01T00:27:54.363Z,9.54
2019-04-01T00:30:22.834Z,9.53
2019-04-01T00:32:51.289Z,9.52
2019-04-01T00:35:19.766Z,9.60
2019-04-01T00:37:48.259Z,9.62
2019-04-01T00:43:10.495Z,9.53
2019-04-01T00:45:43.399Z,9.47
2019-04-01T00:48:11.856Z,9.40
2019-04-01T00:50:40.323Z,9.41
2019-04-01T00:53:08.774Z,9.39
2019-04-01T00:55:37.243Z,9.42
2019-04-01T00:58:05.734Z,9.45
2019-04-01T01:00:34.306Z,9.47
2019-04-01T01:03:02.758Z,9.45
2019-04-01T01:05:31.243Z,9.38
2019-04-01T01:07:59.742Z,9.28
2019-04-01T01:10:28.216Z,9.18
2019-04-01T01:12:57.079Z,9.01
2019-04-01T01:15:25.558Z,8.84
2019-04-01T01:17:54.057Z,8.71
2019-04-01T01:20:22.886Z,8.69
2019-04-01T01:22:51.357Z,8.50
2019-04-01T01:25:20.176Z,8.39
2019-04-01T01:27:48.634Z,8.37
2019-04-01T01:30:17.377Z,8.40
2019-04-01T01:32:45.860Z,8.47
2019-04-01T01:35:14.400Z,8.37
2019-04-01T01:37:42.878Z,8.34
2019-04-01T01:40:11.510Z,8.18
2019-04-01T01:42:39.979Z,8.10
2019-04-01T01:45:08.604Z,8.05
2019-04-01T01:47:37.096Z,8.03
2019-04-01T01:50:07.029Z,7.95
2019-04-01T01:52:35.515Z,7.88
2019-04-01T01:55:04.753Z,7.88
2019-04-01T01:57:33.204Z,7.91
2019-04-01T02:00:01.699Z,7.88
2019-04-01T02:02:30.167Z,7.83
2019-04-01T02:04:58.634Z,7.80
2019-04-01T02:07:27.207Z,7.77
2019-04-01T02:09:55.675Z,7.81
2019-04-01T02:12:24.142Z,7.84
2019-04-01T02:14:53.013Z,7.89
2019-04-01T02:17:21.465Z,7.74
2019-04-01T02:19:49.957Z,7.69
2019-04-01T02:22:18.469Z,7.58
2019-04-01T02:24:46.920Z,7.51
2019-04-01T02:27:15.369Z,7.54
2019-04-01T02:29:43.865Z,7.57
2019-04-01T02:32:12.354Z,7.57
2019-04-01T02:34:40.841Z,7.54
2019-04-01T02:37:09.331Z,7.48
2019-04-01T02:39:37.816Z,7.48
2019-04-01T02:42:06.531Z,7.46
2019-04-01T02:44:34.986Z,7.40
2019-04-01T02:47:03.497Z,7.39
2019-04-01T02:49:31.991Z,7.34
2019-04-01T02:52:00.950Z,7.33
2019-04-01T02:54:29.431Z,7.29
2019-04-01T02:56:57.900Z,7.27
2019-04-01T02:59:26.377Z,7.20
2019-04-01T03:01:54.885Z,7.21
2019-04-01T03:04:23.365Z,7.16
2019-04-01T03:06:51.844Z,7.09
2019-04-01T03:09:20.414Z,7.02
2019-04-01T03:11:48.872Z,7.01
2019-04-01T03:14:17.372Z,7.00
2019-04-01T03:16:45.876Z,6.94
2019-04-01T03:19:14.337Z,6.89
2019-04-01T03:21:42.803Z,6.91
2019-04-01T03:24:11.290Z,6.91
2019-04-01T03:26:39.757Z,6.82
2019-04-01T03:29:08.393Z,6.71
2019-04-01T03:31:36.869Z,6.60
2019-04-01T03:34:05.434Z,6.61
2019-04-01T03:36:33.952Z,6.66
2019-04-01T03:39:02.454Z,6.59
2019-04-01T03:41:30.923Z,6.47
2019-04-01T03:43:59.440Z,6.35
2019-04-01T03:46:27.895Z,6.30
2019-04-01T03:48:56.357Z,6.28
2019-04-01T03:51:24.914Z,6.29
2019-04-01T03:53:53.372Z,6.27
2019-04-01T03:56:21.855Z,6.24
2019-04-01T03:58:50.334Z,6.27
2019-04-01T04:01:18.877Z,6.26
2019-04-01T04:03:47.366Z,6.28
2019-04-01T04:06:16.001Z,6.27
2019-04-01T04:08:44.485Z,6.23
2019-04-01T04:11:13.323Z,6.21
2019-04-01T04:13:41.751Z,6.05
2019-04-01T04:16:10.218Z,6.01
2019-04-01T04:18:38.787Z,5.89
2019-04-01T04:21:07.276Z,5.80
2019-04-01T04:23:35.716Z,5.87
2019-04-01T04:26:04.198Z,5.98
2019-04-01T04:28:32.690Z,5.98
2019-04-01T04:31:01.239Z,6.03
2019-04-01T04:33:29.739Z,6.04
2019-04-01T04:35:58.213Z,6.02
2019-04-01T04:38:26.705Z,6.02
2019-04-01T04:40:55.194Z,6.00
2019-04-01T04:43:23.713Z,5.96
2019-04-01T04:45:52.251Z,5.93
2019-04-01T04:48:20.757Z,5.90
2019-04-01T04:50:49.238Z,5.90
2019-04-01T04:53:17.710Z,5.85
2019-04-01T04:55:46.213Z,5.84
2019-04-01T04:58:14.665Z,5.82
2019-04-01T05:00:43.231Z,5.73
2019-04-01T05:03:11.707Z,5.66
2019-04-01T05:05:40.162Z,5.66
2019-04-01T05:08:08.645Z,5.64
2019-04-01T05:10:37.132Z,5.56
2019-04-01T05:13:05.653Z,5.54
2019-04-01T05:15:34.261Z,5.61
2019-04-01T05:18:02.717Z,5.64
2019-04-01T05:20:32.949Z,5.69
2019-04-01T05:23:03.072Z,5.73
2019-04-01T05:25:32.438Z,5.70
2019-04-01T05:28:03.831Z,5.68
2019-04-01T05:30:33.890Z,5.65
2019-04-01T05:33:04.182Z,5.63
2019-04-01T05:35:35.981Z,5.66
2019-04-01T05:38:06.840Z,5.63
2019-04-01T05:40:36.254Z,5.64
2019-04-01T05:43:05.419Z,5.63
2019-04-01T05:45:34.023Z,5.62
2019-04-01T05:48:02.471Z,5.46
2019-04-01T05:50:31.889Z,5.46
2019-04-01T05:53:00.342Z,5.45
2019-04-01T05:55:28.881Z,5.42
2019-04-01T05:57:57.514Z,5.41
2019-04-01T06:00:30.540Z,5.41
2019-04-01T06:02:59.173Z,5.41
2019-04-01T06:05:27.828Z,5.41
2019-04-01T06:07:56.582Z,5.44
2019-04-01T06:10:25.075Z,5.44
2019-04-01T06:12:54.156Z,5.45
2019-04-01T06:15:22.736Z,5.53
2019-04-01T06:17:51.312Z,5.56
2019-04-01T06:20:19.826Z,5.50
2019-04-01T06:22:48.477Z,5.46
2019-04-01T06:25:17.071Z,5.49
2019-04-01T06:27:45.561Z,5.50
2019-04-01T06:30:14.203Z,5.46
2019-04-01T06:32:42.773Z,5.51
2019-04-01T06:35:11.411Z,5.56
2019-04-01T06:37:39.925Z,5.55
2019-04-01T06:40:08.746Z,5.52
2019-04-01T06:42:37.240Z,5.50
2019-04-01T06:45:08.966Z,5.50
2019-04-01T06:47:37.464Z,5.51
2019-04-01T06:50:06.989Z,5.55
2019-04-01T06:52:35.735Z,5.62
2019-04-01T06:55:05.753Z,5.60
2019-04-01T06:57:34.452Z,5.57
2019-04-01T07:00:03.080Z,5.57
2019-04-01T07:02:31.640Z,5.54
2019-04-01T07:05:00.403Z,5.46
2019-04-01T07:07:28.965Z,5.42
2019-04-01T07:09:57.578Z,5.44
2019-04-01T07:12:26.088Z,5.52
2019-04-01T07:14:54.643Z,5.56
2019-04-01T07:17:23.196Z,5.63
2019-04-01T07:19:51.765Z,5.63
2019-04-01T07:22:21.182Z,5.69
2019-04-01T07:24:49.727Z,5.65
2019-04-01T07:27:18.238Z,5.67
2019-04-01T07:29:46.798Z,5.60
2019-04-01T07:32:15.372Z,5.63
2019-04-01T07:34:43.937Z,5.69
2019-04-01T07:37:12.554Z,5.78
2019-04-01T07:39:41.045Z,5.80
2019-04-01T07:42:09.642Z,5.79
2019-04-01T07:44:38.142Z,5.84
2019-04-01T07:47:06.761Z,5.94
2019-04-01T07:49:35.505Z,5.93
2019-04-01T07:52:04.719Z,5.94
2019-04-01T07:54:34.137Z,6.01
2019-04-01T07:57:02.716Z,6.07
2019-04-01T07:59:31.252Z,6.01
2019-04-01T08:01:59.822Z,6.00
2019-04-01T08:04:28.328Z,6.06
2019-04-01T08:06:57.645Z,6.10
2019-04-01T08:09:26.177Z,6.16
2019-04-01T08:11:54.828Z,6.27
2019-04-01T08:14:23.442Z,6.43
2019-04-01T08:16:52.002Z,6.85
2019-04-01T08:19:20.634Z,7.30
2019-04-01T08:21:52.218Z,7.85
2019-04-01T08:24:19.542Z,8.32
2019-04-01T08:26:48.096Z,8.77
2019-04-01T08:29:29.419Z,8.94
2019-04-01T08:31:47.086Z,9.18
2019-04-01T08:34:16.622Z,9.47
2019-04-01T08:36:45.579Z,9.92
2019-04-01T08:39:15.817Z,10.38
2019-04-01T08:41:44.419Z,10.78
2019-04-01T08:44:13.054Z,11.06
2019-04-01T08:46:41.560Z,11.38
2019-04-01T08:49:10.110Z,11.62
2019-04-01T08:51:38.597Z,11.79
2019-04-01T08:54:07.175Z,11.89
2019-04-01T08:56:38.041Z,12.08
2019-04-01T08:59:05.995Z,12.29
2019-04-01T09:01:39.917Z,12.45
2019-04-01T09:04:08.406Z,12.61
2019-04-01T09:06:36.965Z,12.68
2019-04-01T09:09:07.221Z,12.76
2019-04-01T09:11:38.434Z,12.89
2019-04-01T09:14:06.783Z,13.01
2019-04-01T09:16:36.133Z,13.19
2019-04-01T09:19:04.763Z,13.40
2019-04-01T09:21:33.263Z,13.48
2019-04-01T09:24:01.761Z,13.55
2019-04-01T09:26:30.253Z,13.63
2019-04-01T09:28:58.760Z,13.74
2019-04-01T09:31:27.322Z,13.90
2019-04-01T09:33:55.807Z,13.78
2019-04-01T09:36:24.422Z,13.82
2019-04-01T09:38:52.870Z,13.90
2019-04-01T09:41:21.361Z,13.96
2019-04-01T09:43:49.858Z,14.13
2019-04-01T09:46:18.418Z,14.32
2019-04-01T09:48:46.932Z,14.30
2019-04-01T09:51:15.403Z,14.35
2019-04-01T09:53:43.892Z,14.48
2019-04-01T09:56:12.405Z,14.47
2019-04-01T09:58:40.909Z,14.64
2019-04-01T10:01:09.400Z,14.68
2019-04-01T10:03:37.900Z,14.76
2019-04-01T10:06:06.400Z,14.76
2019-04-01T10:08:42.198Z,14.86
2019-04-01T10:11:05.488Z,14.87
2019-04-01T10:13:33.971Z,14.95
2019-04-01T10:16:02.550Z,15.06
2019-04-01T10:18:31.031Z,15.30
2019-04-01T10:21:00.206Z,15.34
2019-04-01T10:23:28.730Z,15.24
2019-04-01T10:25:57.219Z,15.20
2019-04-01T10:28:25.683Z,15.22
2019-04-01T10:30:54.198Z,15.31
2019-04-01T10:33:22.697Z,15.28
2019-04-01T10:35:51.190Z,15.29
2019-04-01T10:38:19.674Z,15.36
2019-04-01T10:40:48.149Z,15.51
2019-04-01T10:43:16.654Z,15.62
2019-04-01T10:45:45.258Z,15.74
2019-04-01T10:48:13.789Z,15.96
2019-04-01T10:50:42.622Z,15.99
2019-04-01T10:53:11.104Z,15.98
2019-04-01T10:55:39.570Z,16.06
2019-04-01T10:58:08.118Z,16.34
2019-04-01T11:00:36.630Z,16.18
2019-04-01T11:03:06.213Z,16.06
2019-04-01T11:05:35.130Z,16.14
2019-04-01T11:08:03.655Z,16.42
2019-04-01T11:10:32.176Z,16.52
2019-04-01T11:13:00.680Z,16.58
2019-04-01T11:15:29.309Z,16.64
2019-04-01T11:17:57.811Z,16.37
2019-04-01T11:20:26.300Z,16.45
2019-04-01T11:22:54.770Z,16.66
2019-04-01T11:25:23.260Z,16.83
2019-04-01T11:27:51.778Z,16.91
2019-04-01T11:30:20.400Z,16.91
2019-04-01T11:32:48.928Z,17.01
2019-04-01T11:35:17.508Z,17.19
2019-04-01T11:37:46.093Z,17.27
2019-04-01T11:40:15.518Z,17.07
2019-04-01T11:42:44.246Z,17.31
2019-04-01T11:45:13.074Z,17.33
2019-04-01T11:47:41.736Z,17.40
2019-04-01T11:50:10.539Z,17.60
2019-04-01T11:52:39.133Z,17.88
2019-04-01T11:55:09.247Z,17.87
2019-04-01T11:57:38.362Z,17.73
2019-04-01T12:00:12.882Z,17.84
2019-04-01T12:02:41.803Z,17.90
2019-04-01T12:05:10.664Z,17.95
2019-04-01T12:07:39.181Z,17.99
2019-04-01T12:10:08.027Z,17.91
2019-04-01T12:12:36.491Z,17.94
2019-04-01T12:15:06.335Z,18.01
2019-04-01T12:17:34.984Z,18.15
2019-04-01T12:20:04.027Z,18.22
2019-04-01T12:22:32.583Z,18.17
2019-04-01T12:25:01.121Z,18.03
2019-04-01T12:27:29.626Z,17.98
2019-04-01T12:29:58.117Z,18.03
2019-04-01T12:32:26.729Z,18.25
2019-04-01T12:34:55.363Z,18.30
2019-04-01T12:37:23.867Z,18.34
2019-04-01T12:39:52.387Z,18.34
2019-04-01T12:42:20.888Z,18.29
2019-04-01T12:44:49.451Z,18.27
2019-04-01T12:47:18.102Z,18.34
2019-04-01T12:49:46.583Z,18.38
2019-04-01T12:52:15.279Z,18.54
2019-04-01T12:54:43.895Z,18.43
2019-04-01T12:57:13.220Z,18.40
2019-04-01T12:59:42.346Z,18.64
2019-04-01T13:02:11.989Z,18.77
2019-04-01T13:04:40.486Z,18.87
2019-04-01T13:07:09.005Z,18.81
2019-04-01T13:09:37.492Z,19.00
2019-04-01T13:12:06.176Z,19.28
2019-04-01T13:14:34.678Z,19.58
2019-04-01T13:17:03.291Z,19.50
2019-04-01T13:19:32.036Z,19.47
2019-04-01T13:22:00.546Z,19.51
2019-04-01T13:24:29.055Z,19.41
2019-04-01T13:26:57.574Z,19.35
2019-04-01T13:29:26.136Z,19.36
2019-04-01T13:31:54.608Z,19.43
2019-04-01T13:34:23.125Z,19.44
2019-04-01T13:36:51.622Z,19.32
2019-04-01T13:39:20.092Z,19.22
2019-04-01T13:41:48.624Z,19.07
2019-04-01T13:44:17.101Z,18.89
2019-04-01T13:46:48.500Z,18.98
2019-04-01T13:49:15.806Z,18.94
2019-04-01T13:51:44.399Z,18.85
2019-04-01T13:54:12.967Z,18.98
2019-04-01T13:56:42.949Z,18.95
2019-04-01T13:59:12.606Z,18.82
2019-04-01T14:01:41.462Z,18.84
2019-04-01T14:04:09.943Z,18.95
2019-04-01T14:06:38.456Z,18.77
2019-04-01T14:09:07.645Z,18.87
2019-04-01T14:11:36.213Z,18.97
2019-04-01T14:14:04.943Z,19.04
2019-04-01T14:16:33.433Z,19.13
2019-04-01T14:19:01.895Z,19.11
2019-04-01T14:21:30.382Z,19.06
2019-04-01T14:23:58.855Z,19.01
2019-04-01T14:26:27.332Z,19.12
2019-04-01T14:28:55.818Z,18.87
2019-04-01T14:31:24.285Z,18.76
2019-04-01T14:33:52.770Z,18.77
2019-04-01T14:36:21.258Z,18.83
2019-04-01T14:38:49.758Z,18.89
2019-04-01T14:41:18.225Z,18.90
2019-04-01T14:43:46.700Z,18.77
2019-04-01T14:46:15.561Z,18.73
2019-04-01T14:48:44.057Z,18.54
2019-04-01T14:51:12.535Z,18.46
2019-04-01T14:53:41.005Z,18.33
2019-04-01T14:56:09.487Z,18.19
2019-04-01T14:58:37.958Z,18.24
2019-04-01T15:01:06.762Z,18.43
2019-04-01T15:03:35.398Z,18.62
2019-04-01T15:06:03.946Z,18.60
2019-04-01T15:08:32.505Z,18.60
2019-04-01T15:11:00.989Z,18.61
2019-04-01T15:13:29.474Z,18.52
2019-04-01T15:15:57.982Z,18.54
2019-04-01T15:18:26.437Z,18.52
2019-04-01T15:20:55.299Z,18.43
2019-04-01T15:23:25.114Z,18.30
2019-04-01T15:25:54.525Z,18.30
2019-04-01T15:28:23.306Z,18.29
2019-04-01T15:30:51.796Z,18.32
2019-04-01T15:33:21.089Z,18.33
2019-04-01T15:35:49.886Z,18.28
2019-04-01T15:38:18.552Z,18.20
2019-04-01T15:40:47.219Z,18.10
2019-04-01T15:43:15.996Z,17.98
2019-04-01T15:45:44.725Z,17.88
2019-04-01T15:48:13.226Z,17.78
2019-04-01T15:50:41.847Z,17.79
2019-04-01T15:53:10.306Z,17.88
2019-04-01T15:55:38.811Z,17.88
2019-04-01T15:58:07.376Z,17.73
2019-04-01T16:00:36.109Z,17.63
2019-04-01T16:03:04.753Z,17.58
2019-04-01T16:05:34.133Z,17.56
2019-04-01T16:08:02.977Z,17.60
2019-04-01T16:10:31.856Z,17.55
2019-04-01T16:13:00.292Z,17.56
2019-04-01T16:15:31.902Z,17.51
2019-04-01T16:17:58.948Z,17.39
2019-04-01T16:20:27.404Z,17.37
2019-04-01T16:22:55.924Z,17.36
2019-04-01T16:25:24.410Z,17.34
2019-04-01T16:27:52.888Z,17.32
2019-04-01T16:30:21.380Z,17.30
2019-04-01T16:32:49.870Z,17.25
2019-04-01T16:35:18.337Z,17.22
2019-04-01T16:37:46.831Z,17.16
2019-04-01T16:40:16.165Z,17.11
2019-04-01T16:42:44.597Z,17.08
2019-04-01T16:45:13.923Z,17.08
2019-04-01T16:47:42.557Z,17.00
2019-04-01T16:50:11.799Z,16.92
2019-04-01T16:52:40.677Z,16.81
2019-04-01T16:55:10.800Z,16.73
2019-04-01T16:57:39.299Z,16.62
2019-04-01T17:00:14.138Z,16.48
2019-04-01T17:02:40.842Z,16.28
2019-04-01T17:05:09.866Z,16.16
2019-04-01T17:07:38.376Z,16.05
2019-04-01T17:10:07.086Z,15.94
2019-04-01T17:12:35.586Z,15.74
2019-04-01T17:15:04.897Z,15.57
2019-04-01T17:17:33.416Z,15.54
2019-04-01T17:20:01.927Z,15.52
2019-04-01T17:22:31.272Z,15.54
2019-04-01T17:25:00.572Z,15.45
2019-04-01T17:27:29.074Z,15.34
2019-04-01T17:29:57.569Z,15.31
2019-04-01T17:32:26.471Z,15.32
2019-04-01T17:34:54.963Z,15.27
2019-04-01T17:37:23.461Z,15.15
2019-04-01T17:39:51.950Z,15.09
2019-04-01T17:42:20.507Z,14.89
2019-04-01T17:44:52.050Z,14.76
2019-04-01T17:47:20.554Z,14.68
2019-04-01T17:49:49.135Z,14.63
2019-04-01T17:52:17.637Z,14.57
2019-04-01T17:54:46.137Z,14.46
2019-04-01T17:57:15.972Z,14.42
2019-04-01T17:59:44.860Z,14.33
2019-04-01T18:02:15.107Z,14.30
2019-04-01T18:04:43.609Z,14.30
2019-04-01T18:07:12.090Z,14.25
2019-04-01T18:09:40.592Z,14.19
2019-04-01T18:12:09.074Z,13.96
2019-04-01T18:14:37.971Z,13.86
2019-04-01T18:17:06.535Z,13.82
2019-04-01T18:19:36.142Z,13.82
2019-04-01T18:22:04.990Z,13.76
2019-04-01T18:24:33.468Z,13.72
2019-04-01T18:27:02.003Z,13.71
2019-04-01T18:29:30.498Z,13.65
2019-04-01T18:31:59.221Z,13.58
2019-04-01T18:34:28.064Z,13.51
2019-04-01T18:36:56.959Z,13.30
2019-04-01T18:39:25.451Z,13.23
2019-04-01T18:41:53.914Z,13.16
2019-04-01T18:44:22.414Z,13.28
2019-04-01T18:46:50.905Z,13.27
2019-04-01T18:49:19.742Z,13.29
2019-04-01T18:51:48.255Z,13.10
2019-04-01T18:54:16.732Z,12.98
2019-04-01T18:56:47.643Z,12.92
2019-04-01T18:59:15.411Z,12.86
2019-04-01T19:01:44.190Z,12.92
2019-04-01T19:04:13.102Z,12.88
2019-04-01T19:06:41.640Z,12.80
2019-04-01T19:09:11.757Z,12.82
2019-04-01T19:11:43.305Z,12.79
2019-04-01T19:14:11.194Z,12.76
2019-04-01T19:16:40.207Z,12.75
2019-04-01T19:19:08.679Z,12.73
2019-04-01T19:21:37.473Z,12.67
2019-04-01T19:24:06.923Z,12.63
2019-04-01T19:26:35.566Z,12.58
2019-04-01T19:29:04.053Z,12.49
2019-04-01T19:31:32.538Z,12.48
2019-04-01T19:34:00.982Z,12.45
2019-04-01T19:36:30.155Z,12.46
2019-04-01T19:38:58.894Z,12.33
2019-04-01T19:41:27.453Z,12.33
2019-04-01T19:43:55.924Z,12.29
2019-04-01T19:46:24.403Z,12.29
2019-04-01T19:48:52.878Z,12.17
2019-04-01T19:51:21.414Z,12.13
2019-04-01T19:53:49.900Z,12.10
2019-04-01T19:56:18.383Z,12.01
2019-04-01T19:58:46.834Z,11.99
2019-04-01T20:01:15.367Z,11.99
2019-04-01T20:03:43.911Z,11.90
2019-04-01T20:06:12.393Z,11.82
2019-04-01T20:08:40.859Z,11.80
2019-04-01T20:11:09.360Z,11.75
2019-04-01T20:13:39.297Z,11.56
2019-04-01T20:16:10.198Z,11.45
2019-04-01T20:18:38.428Z,11.44
2019-04-01T20:21:07.046Z,11.43
2019-04-01T20:23:35.576Z,11.46
2019-04-01T20:26:04.479Z,11.50
2019-04-01T20:28:32.974Z,11.49
2019-04-01T20:31:01.469Z,11.49
2019-04-01T20:33:31.791Z,11.40
2019-04-01T20:36:00.151Z,11.28
2019-04-01T20:38:28.625Z,11.19
2019-04-01T20:40:57.118Z,11.13
2019-04-01T20:43:25.585Z,11.01
2019-04-01T20:45:54.070Z,10.88
2019-04-01T20:48:22.550Z,10.94
2019-04-01T20:50:51.027Z,10.82
2019-04-01T20:53:19.524Z,10.76
2019-04-01T20:55:49.640Z,10.81
2019-04-01T20:58:18.235Z,10.81
2019-04-01T21:00:46.762Z,10.74
2019-04-01T21:03:15.278Z,10.70
2019-04-01T21:05:43.827Z,10.65
2019-04-01T21:08:12.336Z,10.63
2019-04-01T21:10:42.113Z,10.51
2019-04-01T21:13:11.036Z,10.44
2019-04-01T21:15:39.513Z,10.46
2019-04-01T21:18:07.981Z,10.50
2019-04-01T21:20:36.476Z,10.54
2019-04-01T21:23:04.943Z,10.59
2019-04-01T21:25:33.410Z,10.61
2019-04-01T21:28:01.861Z,10.57
2019-04-01T21:30:30.427Z,10.58
2019-04-01T21:32:58.896Z,10.60
2019-04-01T21:35:27.394Z,10.61
2019-04-01T21:37:55.893Z,10.40
2019-04-01T21:40:24.398Z,10.30
2019-04-01T21:42:52.876Z,10.27
2019-04-01T21:45:21.346Z,10.24
2019-04-01T21:47:49.835Z,10.24
2019-04-01T21:50:18.696Z,10.30
2019-04-01T21:52:47.189Z,10.34
2019-04-01T21:55:15.755Z,10.35
2019-04-01T21:57:44.243Z,10.40
2019-04-01T22:00:18.035Z,10.45
2019-04-01T22:02:46.833Z,10.42
2019-04-01T22:05:15.438Z,10.39
2019-04-01T22:07:43.926Z,10.36
2019-04-01T22:10:12.700Z,10.32
2019-04-01T22:12:41.201Z,10.30
2019-04-01T22:15:09.764Z,10.41
2019-04-01T22:17:38.260Z,10.92
2019-04-01T22:20:07.400Z,11.90
2019-04-01T22:22:37.065Z,12.50
2019-04-01T22:25:06.064Z,12.94
2019-04-01T22:27:34.586Z,13.32
2019-04-01T22:30:03.168Z,13.60
2019-04-01T22:32:31.649Z,13.69
2019-04-01T22:35:00.159Z,13.89
2019-04-01T22:37:28.663Z,13.82
2019-04-01T22:39:57.158Z,13.76
2019-04-01T22:42:27.043Z,13.84
2019-04-01T22:44:55.621Z,13.96
2019-04-01T22:47:24.558Z,14.14
2019-04-01T22:49:53.256Z,14.14
2019-04-01T22:52:21.781Z,14.22
2019-04-01T22:54:50.259Z,14.19
2019-04-01T22:57:18.723Z,14.08
2019-04-01T22:59:48.245Z,14.06
2019-04-01T23:02:17.637Z,14.12
2019-04-01T23:04:46.104Z,14.17
2019-04-01T23:07:14.584Z,14.06
2019-04-01T23:09:43.087Z,14.11
2019-04-01T23:12:11.551Z,14.18
2019-04-01T23:14:40.018Z,14.13
2019-04-01T23:17:09.212Z,14.15
2019-04-01T23:19:38.932Z,14.20
2019-04-01T23:22:07.457Z,14.16
2019-04-01T23:24:35.949Z,14.04
2019-04-01T23:27:05.088Z,14.20
2019-04-01T23:29:33.564Z,14.23
2019-04-01T23:32:02.046Z,14.24
2019-04-01T23:34:30.534Z,14.25
2019-04-01T23:36:59.017Z,14.25
2019-04-01T23:39:27.523Z,14.34
2019-04-01T23:41:55.988Z,14.25
2019-04-01T23:44:24.445Z,14.17
2019-04-01T23:46:52.957Z,14.24
2019-04-01T23:49:21.445Z,14.34
2019-04-01T23:51:49.939Z,14.49
2019-04-01T23:54:18.401Z,14.59
2019-04-01T23:56:46.856Z,14.66
2019-04-01T23:59:15.343Z,14.75
